Time;durP1;ratioP1;P1;durP2;ratioP2;P2;SDS_P1;SDS_P2;PMS_P1;PMS_P2;Temp;Humidity;BMP_temperature;BMP_pressure;BME280_temperature;BME280_humidity;BME280_pressure;Samples;Min_cycle;Max_cycle;Signal;HPM_P1;HPM_P2
2022/09/14 00:01:21;;;;;;;5.28;3.70;;;;;;;17.39;62.19;99275.25;4361076;32;33508;-78
2022/09/14 00:03:55;;;;;;;4.68;3.30;;;;;;;17.47;61.51;99270.16;4357944;32;34786;-78
2022/09/14 00:06:22;;;;;;;5.25;3.65;;;;;;;16.88;63.31;99264.47;4347154;33;33893;-78
2022/09/14 00:08:51;;;;;;;4.62;3.40;;;;;;;16.88;63.33;99269.94;4351294;32;33983;-78
2022/09/14 00:11:20;;;;;;;4.40;3.33;;;;;;;16.92;63.40;99271.78;4361006;32;33383;-78
2022/09/14 00:13:48;;;;;;;4.65;3.47;;;;;;;17.11;62.92;99277.19;4362481;32;33969;-79
2022/09/14 00:16:28;;;;;;;5.12;3.55;;;;;;;16.97;62.91;99277.16;4361934;32;34596;-77
2022/09/14 00:19:05;;;;;;;4.60;3.40;;;;;;;16.84;63.70;99277.94;4333196;33;34013;-77
2022/09/14 00:21:35;;;;;;;4.07;3.10;;;;;;;17.08;62.33;99285.19;4347705;33;33532;-77
2022/09/14 00:24:04;;;;;;;5.55;3.22;;;;;;;16.96;62.50;99270.06;4334129;33;34659;-78
2022/09/14 00:26:31;;;;;;;4.50;3.50;;;;;;;16.87;63.31;99269.16;4359155;32;34992;-79
2022/09/14 00:29:03;;;;;;;5.07;3.30;;;;;;;17.04;62.28;99268.56;4362491;32;34771;-77
2022/09/14 00:31:33;;;;;;;5.40;3.35;;;;;;;16.88;62.85;99264.47;4337243;33;33600;-77
2022/09/14 00:34:02;;;;;;;3.78;3.15;;;;;;;17.08;62.02;99272.28;4346804;32;34410;-78
2022/09/14 00:36:30;;;;;;;4.57;3.25;;;;;;;16.74;63.15;99269.91;4347502;33;34185;-79
2022/09/14 00:38:59;;;;;;;6.05;3.55;;;;;;;16.61;63.75;99268.75;4347220;33;34176;-77
2022/09/14 00:41:33;;;;;;;4.97;3.62;;;;;;;16.20;65.10;99266.69;4333837;33;33281;-78
2022/09/14 00:44:06;;;;;;;4.37;3.35;;;;;;;16.66;63.66;99276.06;4348279;32;33984;-78
2022/09/14 00:46:37;;;;;;;5.43;3.95;;;;;;;16.40;63.95;99276.50;4358811;32;34551;-78
2022/09/14 00:49:12;;;;;;;4.53;3.03;;;;;;;16.87;62.44;99263.66;4338594;33;33916;-78
2022/09/14 00:51:42;;;;;;;;;;;;;;;16.59;63.54;99268.25;4334292;33;34110;-77
2022/09/14 00:54:10;;;;;;;4.85;3.40;;;;;;;16.83;62.83;99256.34;4348660;32;34976;-78
2022/09/14 00:56:37;;;;;;;5.50;3.70;;;;;;;16.68;62.98;99255.47;4335025;33;33334;-78
2022/09/14 00:59:11;;;;;;;4.28;3.35;;;;;;;16.50;63.73;99251.69;4347730;33;34662;-77
2022/09/14 01:01:39;;;;;;;5.37;3.20;;;;;;;16.59;63.42;99247.16;4345528;33;33607;-78
2022/09/14 01:04:06;;;;;;;4.90;3.20;;;;;;;16.26;64.53;99240.03;4346117;33;33957;-78
2022/09/14 01:06:39;;;;;;;4.30;3.12;;;;;;;16.35;64.21;99246.47;4347456;32;33881;-78
2022/09/14 01:09:25;;;;;;;4.35;3.10;;;;;;;16.05;65.32;99239.56;4343848;32;33972;-79
2022/09/14 01:12:23;;;;;;;4.37;3.47;;;;;;;16.35;64.39;99246.47;4346385;33;34240;-77
2022/09/14 01:15:00;;;;;;;4.78;3.35;;;;;;;16.58;63.46;99247.44;4351483;32;34243;-78
2022/09/14 01:17:33;;;;;;;4.55;3.30;;;;;;;16.57;63.29;99246.63;4348133;32;35089;-77
2022/09/14 01:20:19;;;;;;;5.47;3.70;;;;;;;16.09;65.15;99235.09;4346723;33;35295;-77
2022/09/14 01:23:04;;;;;;;4.75;3.40;;;;;;;16.32;64.38;99236.91;4346239;33;33582;-77
2022/09/14 01:25:46;;;;;;;4.90;3.53;;;;;;;16.52;64.00;99234.94;4347555;33;34098;-78
2022/09/14 01:28:22;;;;;;;4.32;3.45;;;;;;;16.54;63.31;99238.19;4346833;33;34199;-77
2022/09/14 01:30:52;;;;;;;4.12;3.10;;;;;;;16.20;64.95;99240.13;4353414;32;34380;-77
2022/09/14 01:33:24;;;;;;;6.10;3.85;;;;;;;15.78;66.18;99239.13;4333558;33;33680;-77
2022/09/14 01:35:54;;;;;;;4.70;3.22;;;;;;;16.16;64.77;99235.56;4333832;33;33482;-77
2022/09/14 01:38:35;;;;;;;5.28;3.58;;;;;;;16.21;64.38;99232.72;4345235;33;34189;-78
2022/09/14 01:41:06;;;;;;;4.35;3.28;;;;;;;16.39;63.76;99218.19;4333824;33;34551;-77
2022/09/14 01:43:37;;;;;;;5.00;3.55;;;;;;;16.06;64.65;99224.78;4333322;32;33434;-77
2022/09/14 01:46:28;;;;;;;5.75;3.50;;;;;;;15.93;65.62;99223.59;4343060;33;34512;-78
2022/09/14 01:49:03;;;;;;;3.95;3.20;;;;;;;15.99;65.23;99216.94;4345950;33;35100;-78
2022/09/14 01:51:32;;;;;;;;;;;;;;;15.94;65.31;99211.56;4346129;33;34737;-77
2022/09/14 01:54:06;;;;;;;5.20;3.83;;;;;;;16.33;64.13;99213.12;4345514;32;33170;-77
2022/09/14 01:56:38;;;;;;;5.32;3.45;;;;;;;16.06;64.62;99200.94;4348510;32;34200;-78
2022/09/14 01:59:13;;;;;;;5.22;3.80;;;;;;;15.90;65.60;99196.84;4352725;32;33982;-79
2022/09/14 02:01:49;;;;;;;5.40;3.80;;;;;;;16.14;64.70;99192.06;4344180;32;34805;-78
2022/09/14 02:04:25;;;;;;;5.53;3.70;;;;;;;16.13;64.40;99184.97;4345791;33;33528;-78
2022/09/14 02:06:52;;;;;;;4.70;3.58;;;;;;;16.12;64.70;99182.53;4346698;33;34626;-78
2022/09/14 02:09:25;;;;;;;4.93;3.53;;;;;;;16.15;64.30;99174.50;4345440;33;34218;-77
2022/09/14 02:11:54;;;;;;;5.43;3.70;;;;;;;15.83;65.85;99185.44;4347426;32;34586;-78
2022/09/14 02:14:21;;;;;;;5.87;3.45;;;;;;;15.69;66.50;99175.22;4371151;32;33529;-77
2022/09/14 02:16:49;;;;;;;4.97;3.83;;;;;;;15.56;67.00;99174.06;4363097;32;33859;-78
2022/09/14 02:19:16;;;;;;;5.65;4.12;;;;;;;15.13;68.14;99167.81;4361600;32;34972;-78
2022/09/14 02:21:50;;;;;;;6.40;4.00;;;;;;;15.35;67.43;99162.59;4372243;32;35140;-78
2022/09/14 02:24:17;;;;;;;5.25;3.87;;;;;;;15.91;65.09;99160.16;4365961;32;32997;-77
2022/09/14 02:26:47;;;;;;;5.43;3.60;;;;;;;15.66;65.93;99164.91;4361569;32;33834;-78
2022/09/14 02:29:15;;;;;;;5.00;3.80;;;;;;;15.59;66.26;99157.06;4361502;32;34751;-78
2022/09/14 02:31:56;;;;;;;7.53;3.87;;;;;;;15.67;65.95;99158.31;4358168;32;34217;-77
2022/09/14 02:34:35;;;;;;;5.32;4.30;;;;;;;15.38;66.98;99158.47;4361256;32;34255;-77
2022/09/14 02:37:09;;;;;;;6.32;3.72;;;;;;;15.85;65.65;99158.62;4361434;32;33716;-78
2022/09/14 02:39:55;;;;;;;4.68;3.50;;;;;;;15.94;65.03;99165.06;4374908;32;35075;-78
2022/09/14 02:42:47;;;;;;;4.15;3.58;;;;;;;15.91;65.15;99158.22;4357418;32;34775;-78
2022/09/14 02:45:19;;;;;;;7.07;4.35;;;;;;;15.67;66.21;99162.97;4346830;33;33644;-77
2022/09/14 02:48:01;;;;;;;5.93;4.43;;;;;;;15.36;67.15;99163.44;4346229;33;33552;-78
2022/09/14 02:51:07;;;;;;;7.07;4.28;;;;;;;15.43;66.92;99155.66;4348723;32;34245;-77
2022/09/14 02:53:48;;;;;;;;;;;;;;;15.53;66.93;99144.59;4357126;32;34595;-77
2022/09/14 02:56:17;;;;;;;5.32;4.03;;;;;;;15.35;67.46;99151.66;4356950;32;33320;-77
2022/09/14 02:58:45;;;;;;;5.68;4.20;;;;;;;15.33;67.59;99153.06;4370166;32;34513;-77
2022/09/14 03:01:16;;;;;;;5.30;4.15;;;;;;;15.42;67.34;99150.47;4357008;32;34159;-77
2022/09/14 03:03:44;;;;;;;6.78;4.28;;;;;;;15.19;68.26;99142.06;4374751;32;34438;-77
2022/09/14 03:06:12;;;;;;;7.25;4.35;;;;;;;15.73;66.49;99132.53;4368842;32;33863;-78
2022/09/14 03:08:39;;;;;;;6.85;4.25;;;;;;;15.73;67.03;99129.81;4347510;32;33789;-77
2022/09/14 03:11:07;;;;;;;5.32;3.95;;;;;;;15.73;67.29;99132.53;4346391;32;35061;-77
2022/09/14 03:13:35;;;;;;;5.47;4.10;;;;;;;15.96;66.78;99143.66;4357060;32;34864;-77
2022/09/14 03:16:05;;;;;;;7.32;4.40;;;;;;;15.53;68.24;99136.38;4363853;32;34002;-77
2022/09/14 03:18:34;;;;;;;4.68;3.78;;;;;;;15.80;67.51;99140.34;4360909;32;33801;-78
2022/09/14 03:21:12;;;;;;;5.07;3.87;;;;;;;15.89;67.22;99140.50;4360758;32;34278;-77
2022/09/14 03:23:46;;;;;;;6.28;4.10;;;;;;;16.01;66.48;99140.84;4360223;32;34241;-78
2022/09/14 03:26:18;;;;;;;5.90;3.78;;;;;;;15.68;67.94;99135.34;4360756;32;33158;-78
2022/09/14 03:28:54;;;;;;;4.50;3.70;;;;;;;16.34;65.47;99132.59;4360136;32;34073;-78
2022/09/14 03:31:22;;;;;;;6.40;3.90;;;;;;;16.20;66.02;99125.19;4358869;32;33765;-77
2022/09/14 03:33:55;;;;;;;5.28;4.18;;;;;;;16.20;66.01;99119.72;4359805;32;33732;-78
2022/09/14 03:36:23;;;;;;;5.60;3.95;;;;;;;16.37;65.73;99121.88;4359975;32;33044;-75
2022/09/14 03:38:52;;;;;;;4.87;3.65;;;;;;;15.95;67.36;99117.41;4360225;32;34039;-77
2022/09/14 03:41:21;;;;;;;7.12;4.00;;;;;;;15.95;67.51;99120.97;4361697;32;34267;-77
2022/09/14 03:43:48;;;;;;;4.75;3.50;;;;;;;16.16;66.78;99134.28;4361333;32;33952;-78
2022/09/14 03:46:21;;;;;;;5.15;4.45;;;;;;;16.38;66.20;99137.16;4362329;32;33210;-78
2022/09/14 03:48:50;;;;;;;5.80;3.75;;;;;;;16.29;66.35;99138.97;4362501;32;33701;-77
2022/09/14 03:51:17;;;;;;;6.50;4.18;;;;;;;16.03;67.30;99132.34;4361989;32;35131;-76
2022/09/14 03:53:45;;;;;;;5.93;4.00;;;;;;;16.51;65.54;99141.03;4361719;32;35143;-75
2022/09/14 03:56:16;;;;;;;5.12;3.95;;;;;;;16.64;64.85;99136.69;4362030;32;33474;-76
2022/09/14 03:58:45;;;;;;;5.07;3.50;;;;;;;16.57;65.05;99142.56;4361556;32;34737;-73
2022/09/14 04:01:15;;;;;;;5.50;3.65;;;;;;;16.52;65.51;99139.09;4360864;32;33930;-78
2022/09/14 04:03:43;;;;;;;5.00;3.55;;;;;;;16.13;66.87;99140.34;4361966;32;34254;-74
2022/09/14 04:06:11;;;;;;;6.65;4.25;;;;;;;16.21;66.79;99131.47;4347895;32;33645;-80
2022/09/14 04:08:40;;;;;;;6.55;4.00;;;;;;;16.12;67.13;99125.88;4362390;32;34184;-77
2022/09/14 04:11:19;;;;;;;6.22;4.22;;;;;;;16.28;66.33;99133.81;4362057;32;32619;-79
2022/09/14 04:13:47;;;;;;;6.05;3.85;;;;;;;16.42;66.11;99133.84;4354207;32;164712;-73
2022/09/14 04:16:15;;;;;;;5.43;3.97;;;;;;;16.37;66.34;99129.25;4361125;32;32991;-73
2022/09/14 04:18:43;;;;;;;5.45;4.05;;;;;;;16.39;66.05;99132.50;4344330;32;36300;-77
2022/09/14 04:21:19;;;;;;;5.57;4.10;;;;;;;16.14;66.92;99112.69;4348716;32;34307;-79
2022/09/14 04:23:47;;;;;;;8.07;4.15;;;;;;;16.26;66.82;99109.47;4357591;32;34743;-74
2022/09/14 04:26:35;;;;;;;6.75;3.72;;;;;;;16.15;67.22;99108.03;4347365;33;33547;-73
2022/09/14 04:29:02;;;;;;;5.65;3.97;;;;;;;16.50;65.71;99109.31;4351492;32;34627;-76
2022/09/14 04:31:30;;;;;;;4.90;3.95;;;;;;;15.74;68.48;99106.81;4361593;32;34166;-75
2022/09/14 04:33:57;;;;;;;7.12;3.83;;;;;;;15.55;69.12;99103.25;4361840;32;33400;-73
2022/09/14 04:36:29;;;;;;;5.53;3.97;;;;;;;15.68;68.83;99107.16;4360105;32;33518;-71
2022/09/14 04:38:59;;;;;;;5.18;4.12;;;;;;;16.26;66.79;99105.91;4347363;32;33794;-72
2022/09/14 04:41:28;;;;;;;8.70;4.25;;;;;;;16.37;66.53;99110.06;4346661;32;34662;-74
2022/09/14 04:43:56;;;;;;;5.82;3.90;;;;;;;16.59;65.89;99102.00;4346749;32;33633;-73
2022/09/14 04:46:29;;;;;;;6.32;4.10;;;;;;;15.95;68.40;99092.78;4361924;32;34248;-73
2022/09/14 04:48:57;;;;;;;7.00;4.40;;;;;;;16.09;68.08;99088.16;4348825;32;33432;-73
2022/09/14 04:51:27;;;;;;;5.55;3.62;;;;;;;16.15;68.07;99089.69;4342260;32;33786;-73
2022/09/14 04:53:57;;;;;;;4.70;3.75;;;;;;;16.50;67.00;99084.66;4361735;32;34278;-72
2022/09/14 04:56:26;;;;;;;5.35;3.83;;;;;;;16.87;65.64;99082.84;4348517;32;34378;-73
2022/09/14 04:58:57;;;;;;;7.90;4.50;;;;;;;16.34;67.93;99075.09;4360870;32;33844;-74
2022/09/14 05:01:35;;;;;;;6.18;4.25;;;;;;;15.81;70.05;99075.53;4348529;32;34056;-72
2022/09/14 05:04:05;;;;;;;5.35;4.10;;;;;;;15.92;70.01;99082.47;4361698;32;33920;-79
2022/09/14 05:06:33;;;;;;;6.32;4.47;;;;;;;15.57;71.16;99088.19;4361896;32;34386;-71
2022/09/14 05:09:03;;;;;;;5.75;4.05;;;;;;;15.45;71.72;99085.09;4361713;32;34702;-73
2022/09/14 05:11:33;;;;;;;6.68;3.95;;;;;;;16.38;68.23;99087.88;4360921;32;34209;-73
2022/09/14 05:14:00;;;;;;;5.00;3.92;;;;;;;16.59;67.60;99095.72;4347653;32;33821;-78
2022/09/14 05:16:29;;;;;;;7.82;4.28;;;;;;;16.83;66.25;99103.75;4348229;32;33638;-76
2022/09/14 05:19:00;;;;;;;9.35;4.80;;;;;;;16.66;67.12;99104.31;4360929;32;34182;-74
2022/09/14 05:21:30;;;;;;;7.20;4.32;;;;;;;16.83;66.75;99111.97;4361578;32;34138;-72
2022/09/14 05:24:00;;;;;;;6.90;4.37;;;;;;;16.61;67.96;99101.69;4361098;32;34065;-72
2022/09/14 05:26:29;;;;;;;7.05;4.20;;;;;;;16.58;68.37;99097.62;4347026;32;33234;-71
2022/09/14 05:28:59;;;;;;;7.82;4.10;;;;;;;16.77;67.86;99097.50;4360349;32;33768;-75
2022/09/14 05:31:27;;;;;;;339.75;211.82;;;;;;;16.75;67.91;99080.56;4346615;32;34178;-73
2022/09/14 05:33:55;;;;;;;31.73;21.23;;;;;;;16.60;67.61;99070.75;4361752;32;34717;-75
2022/09/14 05:36:23;;;;;;;9.48;5.55;;;;;;;16.16;68.29;99077.63;4361220;32;34259;-71
2022/09/14 05:38:50;;;;;;;10.52;6.10;;;;;;;16.38;67.77;99073.38;4361486;32;33608;-75
2022/09/14 05:41:18;;;;;;;6.68;4.12;;;;;;;16.90;65.75;99086.87;4369928;32;35060;-75
2022/09/14 05:43:46;;;;;;;7.93;3.97;;;;;;;16.62;66.27;99092.34;4367053;32;34302;-78
2022/09/14 05:46:15;;;;;;;7.65;3.70;;;;;;;15.91;68.19;99076.16;4360500;32;33775;-69
2022/09/14 05:48:42;;;;;;;5.72;3.92;;;;;;;16.39;66.85;99078.56;4357194;32;34523;-69
2022/09/14 05:51:15;;;;;;;5.12;3.78;;;;;;;16.84;64.62;99094.37;4360927;32;34232;-69
2022/09/14 05:53:48;;;;;;;8.88;3.87;;;;;;;16.55;64.62;99091.97;4360664;32;33687;-70
2022/09/14 05:56:16;;;;;;;6.57;3.53;;;;;;;16.94;63.56;99096.91;4361505;32;33892;-70
2022/09/14 05:58:44;;;;;;;4.93;3.45;;;;;;;16.37;65.31;99094.50;4360859;32;34601;-69
2022/09/14 06:01:12;;;;;;;7.10;3.78;;;;;;;16.84;64.16;99094.37;4353043;32;34270;-69
2022/09/14 06:03:41;;;;;;;5.75;4.07;;;;;;;16.85;64.87;99092.47;4346632;32;33769;-71
2022/09/14 06:06:10;;;;;;;7.95;4.40;;;;;;;17.21;64.07;99095.22;4356997;32;32853;-70
2022/09/14 06:08:38;;;;;;;6.57;3.97;;;;;;;17.24;62.81;99080.91;4359502;32;34226;-69
2022/09/14 06:11:08;;;;;;;5.62;3.97;;;;;;;17.36;63.60;99088.59;4360703;32;33696;-70
2022/09/14 06:13:36;;;;;;;5.57;3.97;;;;;;;17.55;60.74;99081.00;4359851;32;33924;-70
2022/09/14 06:16:08;;;;;;;4.72;3.92;;;;;;;17.29;62.71;99069.81;4352480;32;34062;-70
2022/09/14 06:18:37;;;;;;;8.18;3.90;;;;;;;16.53;65.20;99070.34;4359937;32;33947;-69
2022/09/14 06:21:07;;;;;;;5.47;3.80;;;;;;;16.37;66.53;99066.28;4347419;32;34034;-70
2022/09/14 06:23:34;;;;;;;6.18;3.85;;;;;;;16.74;65.20;99075.41;4361528;32;34198;-70
2022/09/14 06:26:03;;;;;;;8.20;4.18;;;;;;;16.85;64.66;99076.03;4341516;33;34848;-69
2022/09/14 06:28:32;;;;;;;8.48;3.83;;;;;;;16.78;65.09;99081.88;4346348;33;34825;-69
2022/09/14 06:31:00;;;;;;;6.30;4.03;;;;;;;17.00;63.92;99082.00;4346137;33;33914;-70
2022/09/14 06:33:27;;;;;;;7.10;3.95;;;;;;;17.05;64.63;99088.47;4340130;32;34101;-70
2022/09/14 06:35:59;;;;;;;8.73;4.22;;;;;;;17.03;63.27;99094.25;4355191;32;33506;-71
2022/09/14 06:38:27;;;;;;;5.97;4.45;;;;;;;17.20;62.38;99099.09;4332657;33;34727;-71
2022/09/14 06:40:55;;;;;;;7.20;4.10;;;;;;;17.35;62.20;99106.97;4346135;33;33846;-70
2022/09/14 06:43:24;;;;;;;6.65;4.37;;;;;;;17.31;64.05;99118.88;4345901;33;34127;-70
2022/09/14 06:46:22;;;;;;;6.53;4.28;;;;;;;17.15;64.81;99118.41;4346090;33;33368;-70
2022/09/14 06:48:56;;;;;;;5.82;4.00;;;;;;;17.43;64.36;99119.97;4331942;32;33599;-70
2022/09/14 06:51:35;;;;;;;5.82;4.22;;;;;;;17.46;62.43;99118.53;4342012;33;35006;-70
2022/09/14 06:54:03;;;;;;;6.80;4.30;;;;;;;17.64;62.12;99130.44;4332806;33;33451;-70
2022/09/14 06:56:34;;;;;;;7.80;4.22;;;;;;;17.34;62.43;99119.06;4344563;33;34211;-71
2022/09/14 06:59:03;;;;;;;5.25;4.10;;;;;;;17.16;64.63;99114.53;4332462;33;33904;-72
2022/09/14 07:01:30;;;;;;;104.50;40.35;;;;;;;17.96;62.40;99112.13;4332781;33;35002;-71
2022/09/14 07:03:59;;;;;;;211.45;88.28;;;;;;;18.10;62.45;99096.41;4343278;33;33543;-72
2022/09/14 07:06:29;;;;;;;46.88;23.67;;;;;;;17.67;65.08;99083.19;4340860;32;33334;-71
2022/09/14 07:08:57;;;;;;;28.62;15.88;;;;;;;17.48;65.81;99085.31;4346545;32;33729;-71
2022/09/14 07:11:26;;;;;;;10.27;6.87;;;;;;;17.42;67.15;99085.41;4342444;33;33904;-70
2022/09/14 07:13:56;;;;;;;7.55;5.20;;;;;;;17.51;66.81;99080.00;4347436;32;33935;-73
2022/09/14 07:16:28;;;;;;;10.52;6.18;;;;;;;17.59;66.77;99100.38;4361562;32;33757;-71
2022/09/14 07:18:57;;;;;;;7.80;4.93;;;;;;;18.04;66.69;99114.12;4347778;32;34635;-70
2022/09/14 07:21:25;;;;;;;9.82;5.80;;;;;;;17.91;67.30;99112.28;4336123;32;34175;-70
2022/09/14 07:23:54;;;;;;;8.45;5.45;;;;;;;18.12;66.89;99110.63;4361163;32;34911;-70
2022/09/14 07:26:23;;;;;;;10.93;7.00;;;;;;;18.09;67.46;99116.72;4348342;32;34692;-70
2022/09/14 07:28:54;;;;;;;14.73;10.75;;;;;;;18.42;66.68;99114.50;4348399;32;33773;-69
2022/09/14 07:31:28;;;;;;;9.30;7.12;;;;;;;18.44;66.72;99101.25;4361525;32;35095;-71
2022/09/14 07:33:58;;;;;;;7.07;5.35;;;;;;;18.27;67.12;99105.84;4361122;32;34456;-70
2022/09/14 07:36:27;;;;;;;7.15;5.18;;;;;;;18.16;66.73;99103.38;4362274;32;33216;-69
2022/09/14 07:39:05;;;;;;;9.57;5.57;;;;;;;18.45;65.16;99113.84;4362032;32;34070;-69
2022/09/14 07:41:33;;;;;;;9.00;5.47;;;;;;;17.99;67.56;99108.75;4362082;32;35219;-69
2022/09/14 07:44:03;;;;;;;9.68;5.80;;;;;;;17.71;67.10;99095.16;4362009;32;34462;-69
2022/09/14 07:46:32;;;;;;;7.90;5.80;;;;;;;17.95;66.88;99099.56;4361470;32;34335;-70
2022/09/14 07:49:01;;;;;;;10.90;5.78;;;;;;;17.92;67.46;99095.47;4360961;32;34844;-72
2022/09/14 07:51:29;;;;;;;7.97;5.82;;;;;;;17.33;71.08;99081.78;4361997;32;34209;-69
2022/09/14 07:53:59;;;;;;;10.00;5.65;;;;;;;17.61;71.30;99090.72;4347882;32;33993;-69
2022/09/14 07:56:27;;;;;;;9.45;5.43;;;;;;;17.60;72.57;99080.88;4362448;32;33443;-70
2022/09/14 07:58:57;;;;;;;8.30;5.62;;;;;;;17.71;71.41;99081.44;4361387;32;33516;-70
2022/09/14 08:01:45;;;;;;;8.13;5.72;;;;;;;17.60;71.04;99089.13;4361707;32;34962;-73
2022/09/14 08:04:13;;;;;;;10.55;6.47;;;;;;;17.14;73.11;99070.19;4360911;32;33906;-72
2022/09/14 08:06:40;;;;;;;12.65;6.87;;;;;;;17.09;73.58;99064.81;4362081;32;34390;-70
2022/09/14 08:09:08;;;;;;;9.65;5.95;;;;;;;17.28;73.65;99049.03;4361774;32;34750;-69
2022/09/14 08:11:37;;;;;;;7.97;5.87;;;;;;;17.35;73.20;99063.09;4361232;32;33965;-69
2022/09/14 08:14:10;;;;;;;9.32;5.80;;;;;;;17.50;70.65;99061.94;4348052;32;34957;-69
2022/09/14 08:16:38;;;;;;;10.85;7.43;;;;;;;18.07;68.58;99071.50;4361405;32;33818;-70
2022/09/14 08:19:15;;;;;;;11.90;6.72;;;;;;;17.75;70.33;99065.16;4350482;32;34911;-70
2022/09/14 08:21:45;;;;;;;10.98;6.72;;;;;;;17.68;70.24;99067.53;4346471;33;35183;-70
2022/09/14 08:24:19;;;;;;;9.82;7.12;;;;;;;17.69;71.34;99061.75;4347157;33;33637;-71
2022/09/14 08:26:47;;;;;;;11.15;6.65;;;;;;;17.62;71.17;99067.69;4352312;32;33680;-71
2022/09/14 08:29:15;;;;;;;10.57;6.37;;;;;;;17.93;69.92;99063.37;4348495;32;34031;-71
2022/09/14 08:31:44;;;;;;;10.13;6.87;;;;;;;17.65;69.59;99058.00;4348658;32;34194;-70
2022/09/14 08:34:13;;;;;;;9.70;6.65;;;;;;;17.98;69.95;99050.31;4361402;32;34079;-74
2022/09/14 08:36:41;;;;;;;10.75;6.50;;;;;;;17.93;69.38;99041.41;4348054;32;33552;-71
2022/09/14 08:39:10;;;;;;;8.90;6.72;;;;;;;17.96;69.66;99040.78;4336540;32;33289;-72
2022/09/14 08:41:51;;;;;;;10.10;7.00;;;;;;;17.92;71.04;99039.78;4361775;32;34197;-72
2022/09/14 08:44:51;;;;;;;8.52;6.65;;;;;;;18.02;69.74;99048.56;4333881;33;34075;-72
2022/09/14 08:47:28;;;;;;;10.25;6.82;;;;;;;18.23;69.46;99059.81;4347067;32;34105;-71
2022/09/14 08:50:21;;;;;;;10.80;6.68;;;;;;;18.33;68.43;99057.91;4347704;32;34393;-71
2022/09/14 08:52:52;;;;;;;10.60;6.55;;;;;;;18.56;68.62;99048.44;4344886;32;34891;-74
2022/09/14 08:55:19;;;;;;;12.73;7.00;;;;;;;18.58;67.86;99048.13;4347492;32;34850;-72
2022/09/14 08:57:54;;;;;;;8.57;7.03;;;;;;;18.34;69.79;99045.81;4360526;32;34866;-73
2022/09/14 09:00:24;;;;;;;11.15;6.80;;;;;;;18.83;67.79;99041.09;4361305;32;33795;-72
2022/09/14 09:03:13;;;;;;;9.25;6.22;;;;;;;19.40;66.54;99049.22;4361500;32;34212;-73
2022/09/14 09:05:46;;;;;;;8.65;6.07;;;;;;;20.00;65.42;99038.44;4361560;32;35924;-74
2022/09/14 09:08:18;;;;;;;10.88;6.75;;;;;;;19.64;63.29;99042.41;4348121;32;33439;-72
2022/09/14 09:10:47;;;;;;;9.45;5.95;;;;;;;19.60;64.50;99042.22;4347908;32;33927;-71
2022/09/14 09:13:20;;;;;;;11.27;5.82;;;;;;;19.77;64.60;99035.91;4348183;32;35130;-70
2022/09/14 09:15:53;;;;;;;8.38;5.05;;;;;;;20.49;63.24;99047.16;4348144;32;33649;-71
2022/09/14 09:18:46;;;;;;;7.65;5.28;;;;;;;20.83;61.95;99059.94;4347599;32;32882;-70
2022/09/14 09:21:16;;;;;;;9.40;4.80;;;;;;;21.12;60.00;99063.00;4362066;32;34605;-71
2022/09/14 09:23:44;;;;;;;9.95;5.50;;;;;;;20.70;62.31;99066.53;4348488;32;34006;-72
2022/09/14 09:26:31;;;;;;;7.78;5.20;;;;;;;20.45;62.28;99068.22;4361318;32;34789;-71
2022/09/14 09:29:00;;;;;;;9.65;5.45;;;;;;;20.86;61.44;99069.50;4348077;32;34092;-71
2022/09/14 09:31:44;;;;;;;8.15;5.68;;;;;;;21.06;61.68;99077.00;4360264;32;33651;-73
2022/09/14 09:34:15;;;;;;;6.55;4.82;;;;;;;20.69;63.19;99075.91;4346692;32;34914;-75
2022/09/14 09:36:47;;;;;;;8.98;5.07;;;;;;;20.92;62.75;99084.72;4348097;32;34516;-78
2022/09/14 09:39:15;;;;;;;6.47;4.60;;;;;;;20.75;61.88;99084.81;4356154;32;33111;-76
2022/09/14 09:41:47;;;;;;;11.45;5.85;;;;;;;21.68;58.53;99083.69;4347000;33;33486;-77
2022/09/14 09:44:15;;;;;;;8.65;5.12;;;;;;;22.21;57.60;99083.12;4347099;33;33901;-79
2022/09/14 09:46:47;;;;;;;9.35;5.07;;;;;;;;;;4340673;32;33912;-82
2022/09/14 09:49:18;;;;;;;9.25;5.40;;;;;;;21.10;61.97;99080.72;4350508;32;33597;-77
2022/09/14 09:51:45;;;;;;;6.40;4.95;;;;;;;21.37;60.60;99078.56;4337329;32;33602;-79
2022/09/14 09:54:13;;;;;;;7.55;5.05;;;;;;;21.74;58.54;99073.22;4355248;32;34462;-76
2022/09/14 09:56:56;;;;;;;7.65;5.20;;;;;;;20.96;60.53;99074.62;4348882;32;34201;-75
2022/09/14 09:59:39;;;;;;;6.80;5.40;;;;;;;20.60;62.82;99075.97;4331823;32;33295;-74
2022/09/14 10:02:19;;;;;;;7.78;5.47;;;;;;;20.66;62.75;99079.34;4358534;32;33607;-74
2022/09/14 10:05:08;;;;;;;9.45;5.28;;;;;;;21.01;60.84;99079.16;4360472;32;33906;-77
2022/09/14 10:07:57;;;;;;;8.35;4.87;;;;;;;21.48;59.79;99096.34;4361263;32;34601;-77
2022/09/14 10:10:45;;;;;;;12.73;5.22;;;;;;;21.79;59.58;99097.03;4357178;32;34221;-74
2022/09/14 10:13:32;;;;;;;6.97;5.22;;;;;;;21.47;60.86;99103.03;4350124;32;33774;-79
2022/09/14 10:16:15;;;;;;;7.05;4.50;;;;;;;21.26;61.32;99099.44;4356264;32;35398;-77
2022/09/14 10:18:47;;;;;;;5.90;4.65;;;;;;;21.54;61.98;99096.16;4347568;32;33716;-74
2022/09/14 10:21:17;;;;;;;9.63;5.30;;;;;;;21.50;59.54;99094.06;4348081;32;34151;-72
2022/09/14 10:23:45;;;;;;;7.45;5.10;;;;;;;21.44;61.06;99087.13;4347835;32;33662;-78
2022/09/14 10:26:12;;;;;;;8.95;5.20;;;;;;;21.47;60.58;99082.91;4356104;32;34286;-73
2022/09/14 10:28:41;;;;;;;12.93;5.65;;;;;;;21.49;60.13;99075.09;4353070;32;34372;-73
2022/09/14 10:31:18;;;;;;;7.82;5.10;;;;;;;20.94;61.95;99065.88;4338651;32;34407;-85
2022/09/14 10:33:52;;;;;;;7.90;5.50;;;;;;;21.62;61.51;99060.19;4351206;32;34017;-80
2022/09/14 10:36:30;;;;;;;6.22;4.78;;;;;;;21.78;61.08;99067.84;4351764;32;35189;-78
2022/09/14 10:39:13;;;;;;;6.22;4.78;;;;;;;22.37;59.00;99063.94;4340178;32;33786;-76
2022/09/14 10:41:50;;;;;;;10.93;5.57;;;;;;;23.19;56.86;99074.06;4353549;32;33555;-74
2022/09/14 10:44:40;;;;;;;9.05;4.85;;;;;;;22.77;57.06;99074.31;4347351;32;34028;-77
2022/09/14 10:47:10;;;;;;;6.60;4.60;;;;;;;22.98;56.69;99074.16;4347311;32;33812;-80
2022/09/14 10:50:20;;;;;;;7.18;4.97;;;;;;;22.62;57.02;99067.53;4360876;32;34843;-78
2022/09/14 10:53:10;;;;;;;12.07;5.97;;;;;;;22.92;56.82;99076.38;4362618;32;33307;-74
2022/09/14 10:56:00;;;;;;;8.80;5.80;;;;;;;21.84;59.32;99072.00;4362800;32;33954;-90
2022/09/14 10:59:01;;;;;;;9.85;5.90;;;;;;;21.23;61.48;99072.50;4349094;32;33789;-82
2022/09/14 11:01:34;;;;;;;7.95;5.43;;;;;;;21.95;59.77;99086.19;4362825;32;34018;-75
2022/09/14 11:04:51;;;;;;;11.20;5.32;;;;;;;21.90;59.42;99084.44;4358391;32;34380;-79
2022/09/14 11:07:35;;;;;;;8.40;4.97;;;;;;;22.05;59.89;99088.50;4300290;33;33937;-80
2022/09/14 11:10:18;;;;;;;9.53;5.20;;;;;;;22.80;58.63;99073.63;4301080;33;33858;-80
2022/09/14 11:13:41;;;;;;;6.40;4.75;;;;;;;22.38;59.96;99066.38;4335065;32;34587;-82
2022/09/14 11:16:46;;;;;;;7.15;4.72;;;;;;;22.62;59.08;99068.34;4300866;33;32902;-80
2022/09/14 11:19:17;;;;;;;;;;;;;;;22.81;57.99;99064.19;4362125;32;35157;-81
2022/09/14 11:21:56;;;;;;;6.55;4.60;;;;;;;23.23;57.33;99056.37;4360676;32;35888;-80
2022/09/14 11:24:53;;;;;;;6.75;4.53;;;;;;;23.33;56.82;99052.34;4361793;32;34632;-73
2022/09/14 11:27:36;;;;;;;6.15;4.65;;;;;;;23.26;56.91;99052.94;4361659;32;33515;-73
2022/09/14 11:30:05;;;;;;;6.00;4.50;;;;;;;23.46;56.04;99053.91;4347897;32;34483;-75
2022/09/14 11:32:45;;;;;;;9.27;4.68;;;;;;;23.11;56.68;99048.94;4347635;32;34085;-80
2022/09/14 11:35:20;;;;;;;6.20;4.35;;;;;;;22.29;59.32;99057.38;4349983;32;34669;-79
2022/09/14 11:37:59;;;;;;;8.18;4.70;;;;;;;22.65;58.93;99059.34;4356503;32;33078;-79
2022/09/14 11:40:43;;;;;;;6.85;4.80;;;;;;;22.83;59.05;99054.38;4344185;32;34500;-72
2022/09/14 11:43:52;;;;;;;6.72;4.15;;;;;;;22.74;60.44;99037.09;4347561;32;34763;-82
2022/09/14 11:46:26;;;;;;;6.80;4.87;;;;;;;22.52;59.31;99024.56;4346867;32;34341;-80
2022/09/14 11:48:56;;;;;;;7.37;5.23;;;;;;;22.44;59.70;99025.47;4361451;32;34526;-73
2022/09/14 11:51:36;;;;;;;6.70;4.47;;;;;;;22.38;60.63;99026.88;4361676;32;34329;-80
2022/09/14 11:54:10;;;;;;;6.30;4.75;;;;;;;22.38;60.74;99035.16;4348235;32;35737;-85
2022/09/14 11:56:38;;;;;;;;;;;;;;;22.88;59.85;99037.53;4362021;32;34010;-79
2022/09/14 11:59:06;;;;;;;6.40;4.50;;;;;;;22.95;58.28;99034.19;4347730;32;34302;-81
2022/09/14 12:01:38;;;;;;;6.10;4.45;;;;;;;23.02;59.26;99039.16;4360898;32;34812;-79
2022/09/14 12:04:08;;;;;;;5.55;4.50;;;;;;;23.10;57.96;99036.25;4348506;32;34274;-85